Paradise — WDI4391 — position and weather

sailwx.info

Track history (hours):
 
Tides and Currents Weather Stations Pressure Air Temp Water Temp Dewpoint Dewpoint Depression Visibility Wind Speed Wind Dir Waves Ship Positions

Paradise

Owner: Southern Yacht Tours, Miami, FL. More information available from US FCC via Universal Licensing System and Coast Guard Vessel Documentation Center.

Last reported at 2018-Apr-03 20:58 UTC. Time now 2018-Jun-24 14:16 UTC.
Position N 26°05' W 080°11'.
Warning: this ship's position is months out of date.

Length 30 m.

Type: Pleasure craft. MMSI: 367086000.

Date/timePositionNaut miles runAvg speedWind from/ knotsBaromVisibWave heightAir tempDewpointWater temp
2018-Apr-03 20:58N 26°05' W 080°11'0 0.0
2018-Apr-03 20:28N 26°05' W 080°11'0 0.0
2018-Apr-03 19:58N 26°05' W 080°11'0 0.0
2018-Apr-03 19:28N 26°05' W 080°11'0 0.0
2018-Apr-03 19:00N 26°05' W 080°11'0 0.0
2018-Apr-03 18:29N 26°05' W 080°11'0 0.0
2018-Apr-03 17:59N 26°05' W 080°11'0 0.0
2018-Apr-03 17:29N 26°05' W 080°11'0 0.0
2018-Apr-03 16:56N 26°05' W 080°11'0 0.0
2018-Apr-03 16:29N 26°05' W 080°11'0 0.0
2018-Apr-03 15:59N 26°05' W 080°11'0 0.0
2018-Apr-03 15:29N 26°05' W 080°11'0 0.0
2018-Apr-03 14:59N 26°05' W 080°11'0 0.1
2018-Apr-03 14:26N 26°05' W 080°11'0 0.0
2018-Apr-03 13:59N 26°05' W 080°11'0 0.0
2018-Apr-03 06:03N 26°05' W 080°11'0 0.2
2018-Apr-03 05:55N 26°05' W 080°11'0 0.0
2018-Apr-03 05:09N 26°05' W 080°11'0 0.0
2018-Apr-02 20:16N 26°05' W 080°11'0 0.0
2018-Apr-02 19:53N 26°05' W 080°11'0 0.0
2018-Apr-02 18:26N 26°05' W 080°11'0 0.1
2018-Apr-02 17:58N 26°05' W 080°11'0 0.0
2018-Apr-02 17:29N 26°05' W 080°11'0 0.0
2018-Apr-02 09:04N 26°05' W 080°11'0 0.1
2018-Apr-02 08:57N 26°05' W 080°11'0 0.0
2018-Apr-02 08:25N 26°05' W 080°11'0 0.0
2018-Apr-02 00:52N 26°05' W 080°11'0 0.1
2018-Apr-02 00:28N 26°05' W 080°11'0 0.0
2018-Apr-01 21:59N 26°05' W 080°11'0 0.0
2018-Apr-01 21:19N 26°05' W 080°11'0 0.0
2018-Apr-01 20:59N 26°05' W 080°11'0 0.0
2018-Apr-01 20:30N 26°05' W 080°11'0 0.0
2018-Apr-01 20:00N 26°05' W 080°11'0 0.0
2018-Apr-01 19:30N 26°05' W 080°11'2 4.1
2018-Apr-01 19:00N 26°07' W 080°10'1 2.6
2018-Apr-01 18:30N 26°07' W 080°08'2 2.9
2018-Apr-01 17:59N 26°07' W 080°07'0 0.0
2018-Apr-01 17:30N 26°07' W 080°07'0 0.0
2018-Apr-01 16:47N 26°07' W 080°07'0 0.0
2018-Apr-01 16:17N 26°07' W 080°07'0 0.0
2018-Apr-01 15:53N 26°07' W 080°07'0 0.0
2018-Apr-01 15:23N 26°07' W 080°07'0 0.0
2018-Apr-01 14:53N 26°07' W 080°07'0 0.0
2018-Apr-01 13:38N 26°07' W 080°07'0 0.0
2018-Apr-01 13:23N 26°07' W 080°07'0 0.0
2018-Apr-01 12:53N 26°07' W 080°07'0 0.0
2018-Apr-01 12:26N 26°07' W 080°07'0 0.0
2018-Apr-01 11:56N 26°07' W 080°07'0 0.0
2018-Apr-01 11:23N 26°07' W 080°07'0 0.0
2018-Apr-01 10:56N 26°07' W 080°07'0 0.0
2018-Apr-01 10:19N 26°07' W 080°07'0 0.0
2018-Apr-01 09:56N 26°07' W 080°07'0 0.0
2018-Apr-01 09:22N 26°07' W 080°07'0 0.0
2018-Apr-01 08:55N 26°07' W 080°07'0 0.0
2018-Apr-01 08:28N 26°07' W 080°07'0 0.0
2018-Apr-01 07:52N 26°07' W 080°07'0 0.0
2018-Apr-01 07:28N 26°07' W 080°07'0 0.0
2018-Apr-01 06:58N 26°07' W 080°07'0 0.0
2018-Apr-01 06:28N 26°07' W 080°07'0 0.0
2018-Apr-01 05:55N 26°07' W 080°07'0 0.0
2018-Apr-01 04:58N 26°07' W 080°07'0 0.0
2018-Apr-01 04:28N 26°07' W 080°07'0 0.0
2018-Apr-01 03:58N 26°07' W 080°07'0 0.0
2018-Apr-01 03:28N 26°07' W 080°07'0 0.0
2018-Apr-01 02:55N 26°07' W 080°07'0 0.0
2018-Apr-01 02:28N 26°07' W 080°07'0 0.0
2018-Apr-01 01:58N 26°07' W 080°07'0 0.0
2018-Apr-01 01:28N 26°07' W 080°07'0 0.0
2018-Apr-01 00:52N 26°07' W 080°07'1 2.0
2018-Apr-01 00:30N 26°07' W 080°07'1 1.3
2018-Apr-01 00:00N 26°06' W 080°07'3 6.3
2018-Mar-31 23:30N 26°03' W 080°07'3 5.1
2018-Mar-31 23:00N 26°00' W 080°07'0 0.2
2018-Mar-31 22:26N 26°00' W 080°07'0 0.0
2018-Mar-31 21:53N 26°00' W 080°07'0 0.0
2018-Mar-31 21:29N 26°00' W 080°07'0 0.0
2018-Mar-31 20:56N 26°00' W 080°07'0 0.0
2018-Mar-31 20:23N 26°00' W 080°07'0 0.0
2018-Mar-31 19:56N 26°00' W 080°07'0 0.0
2018-Mar-31 19:29N 26°00' W 080°07'0 0.0
2018-Mar-31 18:56N 26°00' W 080°07'0 1.1
2018-Mar-31 18:30N 26°01' W 080°07'2 4.6
2018-Mar-31 17:58N 26°03' W 080°07'3 6.2
2018-Mar-31 17:30N 26°06' W 080°07'1 1.8
2018-Mar-31 16:51N 26°07' W 080°07'1 3.1
2018-Mar-31 16:28N 26°08' W 080°06'1 1.7
2018-Mar-31 15:51N 26°09' W 080°06'1 3.1
2018-Mar-31 15:26N 26°08' W 080°07'1 1.9
2018-Mar-31 14:56N 26°07' W 080°07'0 0.0
2018-Mar-31 14:26N 26°07' W 080°07'0 0.0
2018-Mar-31 13:53N 26°07' W 080°07'0 0.0
2018-Mar-31 13:23N 26°07' W 080°07'0 0.0
2018-Mar-31 12:53N 26°07' W 080°07'0 0.0
2018-Mar-31 12:23N 26°07' W 080°07'0 0.0
2018-Mar-31 11:53N 26°07' W 080°07'0 0.0
2018-Mar-31 11:23N 26°07' W 080°07'0 0.0
2018-Mar-31 10:47N 26°07' W 080°07'0 0.0
2018-Mar-31 10:20N 26°07' W 080°07'0 0.0
2018-Mar-31 09:50N 26°07' W 080°07'0 0.0
2018-Mar-31 09:20N 26°07' W 080°07'0 0.0
2018-Mar-31 08:59N 26°07' W 080°07'0 0.0
2018-Mar-31 08:29N 26°07' W 080°07'0 0.0
2018-Mar-31 07:59N 26°07' W 080°07'0 0.0
2018-Mar-31 07:29N 26°07' W 080°07'0 0.0
2018-Mar-31 06:59N 26°07' W 080°07'0 0.0
2018-Mar-31 06:29N 26°07' W 080°07'0 0.0
2018-Mar-31 05:58N 26°07' W 080°07'0 0.0
2018-Mar-31 05:28N 26°07' W 080°07'0 0.0
2018-Mar-31 04:58N 26°07' W 080°07'0 0.0
2018-Mar-31 04:28N 26°07' W 080°07'0 0.0
2018-Mar-31 03:43N 26°07' W 080°07'0 0.0
2018-Mar-31 03:28N 26°07' W 080°07'0 0.0
2018-Mar-31 02:58N 26°07' W 080°07'0 0.0
2018-Mar-31 02:28N 26°07' W 080°07'0 0.0
2018-Mar-31 01:58N 26°07' W 080°07'0 0.0
2018-Mar-31 01:21N 26°07' W 080°07'0 0.0
2018-Mar-31 00:54N 26°07' W 080°07'0 0.0
2018-Mar-31 00:28N 26°07' W 080°07'0 0.6
2018-Mar-31 00:00N 26°07' W 080°07'1 2.8
2018-Mar-30 23:30N 26°06' W 080°06'918.1
2018-Mar-30 23:00N 25°57' W 080°06'918.5
2018-Mar-30 22:30N 25°47' W 080°06'919.2
2018-Mar-30 22:00N 25°38' W 080°07'  
2018-Mar-25 18:56N 25°34' W 080°08'512.5
2018-Mar-25 18:30N 25°39' W 080°10'2 3.2
2018-Mar-25 17:58N 25°40' W 080°11'1 2.5
2018-Mar-25 17:29N 25°41' W 080°11'1 3.1
2018-Mar-25 17:00N 25°42' W 080°11'4 8.2
2018-Mar-25 16:30N 25°46' W 080°10'2 3.1
2018-Mar-25 15:57N 25°46' W 080°08'0 0.0
2018-Mar-25 15:25N 25°46' W 080°08'0 0.0
2018-Mar-25 14:49N 25°46' W 080°08'0 0.0
2018-Mar-25 14:22N 25°46' W 080°08'0 0.0
2018-Mar-25 13:58N 25°46' W 080°08'0 0.0
2018-Mar-25 13:27N 25°46' W 080°08'0 0.0
2018-Mar-25 12:59N 25°46' W 080°08'0 0.0
2018-Mar-25 12:23N 25°46' W 080°08'0 0.0
2018-Mar-25 11:56N 25°46' W 080°08'0 0.0
2018-Mar-25 11:17N 25°46' W 080°08'0 0.0
2018-Mar-25 10:53N 25°46' W 080°08'0 0.0
2018-Mar-25 10:26N 25°46' W 080°08'0 0.0
2018-Mar-25 09:59N 25°46' W 080°08'0 0.0
2018-Mar-25 09:20N 25°46' W 080°08'0 0.0
2018-Mar-25 08:59N 25°46' W 080°08'0 0.0
2018-Mar-25 08:26N 25°46' W 080°08'0 0.0
2018-Mar-25 07:56N 25°46' W 080°08'0 0.0
2018-Mar-25 07:29N 25°46' W 080°08'0 0.0
2018-Mar-25 06:56N 25°46' W 080°08'0 0.0
2018-Mar-25 06:26N 25°46' W 080°08'0 0.0
2018-Mar-25 05:59N 25°46' W 080°08'0 0.0
2018-Mar-25 05:29N 25°46' W 080°08'0 0.0
2018-Mar-25 04:59N 25°46' W 080°08'0 0.0
2018-Mar-25 04:26N 25°46' W 080°08'0 0.0
2018-Mar-25 03:53N 25°46' W 080°08'0 0.0
2018-Mar-25 03:29N 25°46' W 080°08'0 0.0
2018-Mar-25 02:59N 25°46' W 080°08'0 0.0
2018-Mar-25 02:29N 25°46' W 080°08'0 0.0
2018-Mar-25 01:53N 25°46' W 080°08'0 0.0
2018-Mar-25 01:20N 25°46' W 080°08'0 0.0
2018-Mar-25 00:56N 25°46' W 080°08'0 0.0
2018-Mar-25 00:29N 25°46' W 080°08'0 0.0
2018-Mar-24 23:53N 25°46' W 080°08'0 0.0
2018-Mar-24 23:26N 25°46' W 080°08'0 0.0
2018-Mar-24 22:59N 25°46' W 080°08'1 1.2
2018-Mar-24 22:30N 25°47' W 080°09'2 3.2
2018-Mar-24 22:00N 25°47' W 080°10'1 2.2
2018-Mar-24 21:30N 25°46' W 080°11'2 4.4
2018-Mar-24 21:00N 25°49' W 080°11'  
Track history (hours):
 
Tides and Currents Weather Stations Pressure Air Temp Water Temp Dewpoint Dewpoint Depression Visibility Wind Speed Wind Dir Waves Ship Positions

Paradise

Owner: Southern Yacht Tours, Miami, FL. More information available from US FCC via Universal Licensing System and Coast Guard Vessel Documentation Center.

Last reported at 2018-Apr-03 20:58 UTC. Time now 2018-Jun-24 14:16 UTC.
Position N 26°05' W 080°11'.
Warning: this ship's position is months out of date.

Length 30 m.

Type: Pleasure craft. MMSI: 367086000.

Date/timePositionNaut miles runAvg speedWind from/ knotsBaromVisibWave heightAir tempDewpointWater temp
2018-Apr-03 20:58N 26°05' W 080°11'0 0.0
2018-Apr-03 20:28N 26°05' W 080°11'0 0.0
2018-Apr-03 19:58N 26°05' W 080°11'0 0.0
2018-Apr-03 19:28N 26°05' W 080°11'0 0.0
2018-Apr-03 19:00N 26°05' W 080°11'0 0.0
2018-Apr-03 18:29N 26°05' W 080°11'0 0.0
2018-Apr-03 17:59N 26°05' W 080°11'0 0.0
2018-Apr-03 17:29N 26°05' W 080°11'0 0.0
2018-Apr-03 16:56N 26°05' W 080°11'0 0.0
2018-Apr-03 16:29N 26°05' W 080°11'0 0.0
2018-Apr-03 15:59N 26°05' W 080°11'0 0.0
2018-Apr-03 15:29N 26°05' W 080°11'0 0.0
2018-Apr-03 14:59N 26°05' W 080°11'0 0.1
2018-Apr-03 14:26N 26°05' W 080°11'0 0.0
2018-Apr-03 13:59N 26°05' W 080°11'0 0.0
2018-Apr-03 06:03N 26°05' W 080°11'0 0.2
2018-Apr-03 05:55N 26°05' W 080°11'0 0.0
2018-Apr-03 05:09N 26°05' W 080°11'0 0.0
2018-Apr-02 20:16N 26°05' W 080°11'0 0.0
2018-Apr-02 19:53N 26°05' W 080°11'0 0.0
2018-Apr-02 18:26N 26°05' W 080°11'0 0.1
2018-Apr-02 17:58N 26°05' W 080°11'0 0.0
2018-Apr-02 17:29N 26°05' W 080°11'0 0.0
2018-Apr-02 09:04N 26°05' W 080°11'0 0.1
2018-Apr-02 08:57N 26°05' W 080°11'0 0.0
2018-Apr-02 08:25N 26°05' W 080°11'0 0.0
2018-Apr-02 00:52N 26°05' W 080°11'0 0.1
2018-Apr-02 00:28N 26°05' W 080°11'0 0.0
2018-Apr-01 21:59N 26°05' W 080°11'0 0.0
2018-Apr-01 21:19N 26°05' W 080°11'0 0.0
2018-Apr-01 20:59N 26°05' W 080°11'0 0.0
2018-Apr-01 20:30N 26°05' W 080°11'0 0.0
2018-Apr-01 20:00N 26°05' W 080°11'0 0.0
2018-Apr-01 19:30N 26°05' W 080°11'2 4.1
2018-Apr-01 19:00N 26°07' W 080°10'1 2.6
2018-Apr-01 18:30N 26°07' W 080°08'2 2.9
2018-Apr-01 17:59N 26°07' W 080°07'0 0.0
2018-Apr-01 17:30N 26°07' W 080°07'0 0.0
2018-Apr-01 16:47N 26°07' W 080°07'0 0.0
2018-Apr-01 16:17N 26°07' W 080°07'0 0.0
2018-Apr-01 15:53N 26°07' W 080°07'0 0.0
2018-Apr-01 15:23N 26°07' W 080°07'0 0.0
2018-Apr-01 14:53N 26°07' W 080°07'0 0.0
2018-Apr-01 13:38N 26°07' W 080°07'0 0.0
2018-Apr-01 13:23N 26°07' W 080°07'0 0.0
2018-Apr-01 12:53N 26°07' W 080°07'0 0.0
2018-Apr-01 12:26N 26°07' W 080°07'0 0.0
2018-Apr-01 11:56N 26°07' W 080°07'0 0.0
2018-Apr-01 11:23N 26°07' W 080°07'0 0.0
2018-Apr-01 10:56N 26°07' W 080°07'0 0.0
2018-Apr-01 10:19N 26°07' W 080°07'0 0.0
2018-Apr-01 09:56N 26°07' W 080°07'0 0.0
2018-Apr-01 09:22N 26°07' W 080°07'0 0.0
2018-Apr-01 08:55N 26°07' W 080°07'0 0.0
2018-Apr-01 08:28N 26°07' W 080°07'0 0.0
2018-Apr-01 07:52N 26°07' W 080°07'0 0.0
2018-Apr-01 07:28N 26°07' W 080°07'0 0.0
2018-Apr-01 06:58N 26°07' W 080°07'0 0.0
2018-Apr-01 06:28N 26°07' W 080°07'0 0.0
2018-Apr-01 05:55N 26°07' W 080°07'0 0.0
2018-Apr-01 04:58N 26°07' W 080°07'0 0.0
2018-Apr-01 04:28N 26°07' W 080°07'0 0.0
2018-Apr-01 03:58N 26°07' W 080°07'0 0.0
2018-Apr-01 03:28N 26°07' W 080°07'0 0.0
2018-Apr-01 02:55N 26°07' W 080°07'0 0.0
2018-Apr-01 02:28N 26°07' W 080°07'0 0.0
2018-Apr-01 01:58N 26°07' W 080°07'0 0.0
2018-Apr-01 01:28N 26°07' W 080°07'0 0.0
2018-Apr-01 00:52N 26°07' W 080°07'1 2.0
2018-Apr-01 00:30N 26°07' W 080°07'1 1.3
2018-Apr-01 00:00N 26°06' W 080°07'3 6.3
2018-Mar-31 23:30N 26°03' W 080°07'3 5.1
2018-Mar-31 23:00N 26°00' W 080°07'0 0.2
2018-Mar-31 22:26N 26°00' W 080°07'0 0.0
2018-Mar-31 21:53N 26°00' W 080°07'0 0.0
2018-Mar-31 21:29N 26°00' W 080°07'0 0.0
2018-Mar-31 20:56N 26°00' W 080°07'0 0.0
2018-Mar-31 20:23N 26°00' W 080°07'0 0.0
2018-Mar-31 19:56N 26°00' W 080°07'0 0.0
2018-Mar-31 19:29N 26°00' W 080°07'0 0.0
2018-Mar-31 18:56N 26°00' W 080°07'0 1.1
2018-Mar-31 18:30N 26°01' W 080°07'2 4.6
2018-Mar-31 17:58N 26°03' W 080°07'3 6.2
2018-Mar-31 17:30N 26°06' W 080°07'1 1.8
2018-Mar-31 16:51N 26°07' W 080°07'1 3.1
2018-Mar-31 16:28N 26°08' W 080°06'1 1.7
2018-Mar-31 15:51N 26°09' W 080°06'1 3.1
2018-Mar-31 15:26N 26°08' W 080°07'1 1.9
2018-Mar-31 14:56N 26°07' W 080°07'0 0.0
2018-Mar-31 14:26N 26°07' W 080°07'0 0.0
2018-Mar-31 13:53N 26°07' W 080°07'0 0.0
2018-Mar-31 13:23N 26°07' W 080°07'0 0.0
2018-Mar-31 12:53N 26°07' W 080°07'0 0.0
2018-Mar-31 12:23N 26°07' W 080°07'0 0.0
2018-Mar-31 11:53N 26°07' W 080°07'0 0.0
2018-Mar-31 11:23N 26°07' W 080°07'0 0.0
2018-Mar-31 10:47N 26°07' W 080°07'0 0.0
2018-Mar-31 10:20N 26°07' W 080°07'0 0.0
2018-Mar-31 09:50N 26°07' W 080°07'0 0.0
2018-Mar-31 09:20N 26°07' W 080°07'0 0.0
2018-Mar-31 08:59N 26°07' W 080°07'0 0.0
2018-Mar-31 08:29N 26°07' W 080°07'0 0.0
2018-Mar-31 07:59N 26°07' W 080°07'0 0.0
2018-Mar-31 07:29N 26°07' W 080°07'0 0.0
2018-Mar-31 06:59N 26°07' W 080°07'0 0.0
2018-Mar-31 06:29N 26°07' W 080°07'0 0.0
2018-Mar-31 05:58N 26°07' W 080°07'0 0.0
2018-Mar-31 05:28N 26°07' W 080°07'0 0.0
2018-Mar-31 04:58N 26°07' W 080°07'0 0.0
2018-Mar-31 04:28N 26°07' W 080°07'0 0.0
2018-Mar-31 03:43N 26°07' W 080°07'0 0.0
2018-Mar-31 03:28N 26°07' W 080°07'0 0.0
2018-Mar-31 02:58N 26°07' W 080°07'0 0.0
2018-Mar-31 02:28N 26°07' W 080°07'0 0.0
2018-Mar-31 01:58N 26°07' W 080°07'0 0.0
2018-Mar-31 01:21N 26°07' W 080°07'0 0.0
2018-Mar-31 00:54N 26°07' W 080°07'0 0.0
2018-Mar-31 00:28N 26°07' W 080°07'0 0.6
2018-Mar-31 00:00N 26°07' W 080°07'1 2.8
2018-Mar-30 23:30N 26°06' W 080°06'918.1
2018-Mar-30 23:00N 25°57' W 080°06'918.5
2018-Mar-30 22:30N 25°47' W 080°06'919.2
2018-Mar-30 22:00N 25°38' W 080°07'  
2018-Mar-25 18:56N 25°34' W 080°08'512.5
2018-Mar-25 18:30N 25°39' W 080°10'2 3.2
2018-Mar-25 17:58N 25°40' W 080°11'1 2.5
2018-Mar-25 17:29N 25°41' W 080°11'1 3.1
2018-Mar-25 17:00N 25°42' W 080°11'4 8.2
2018-Mar-25 16:30N 25°46' W 080°10'2 3.1
2018-Mar-25 15:57N 25°46' W 080°08'0 0.0
2018-Mar-25 15:25N 25°46' W 080°08'0 0.0
2018-Mar-25 14:49N 25°46' W 080°08'0 0.0
2018-Mar-25 14:22N 25°46' W 080°08'0 0.0
2018-Mar-25 13:58N 25°46' W 080°08'0 0.0
2018-Mar-25 13:27N 25°46' W 080°08'0 0.0
2018-Mar-25 12:59N 25°46' W 080°08'0 0.0
2018-Mar-25 12:23N 25°46' W 080°08'0 0.0
2018-Mar-25 11:56N 25°46' W 080°08'0 0.0
2018-Mar-25 11:17N 25°46' W 080°08'0 0.0
2018-Mar-25 10:53N 25°46' W 080°08'0 0.0
2018-Mar-25 10:26N 25°46' W 080°08'0 0.0
2018-Mar-25 09:59N 25°46' W 080°08'0 0.0
2018-Mar-25 09:20N 25°46' W 080°08'0 0.0
2018-Mar-25 08:59N 25°46' W 080°08'0 0.0
2018-Mar-25 08:26N 25°46' W 080°08'0 0.0
2018-Mar-25 07:56N 25°46' W 080°08'0 0.0
2018-Mar-25 07:29N 25°46' W 080°08'0 0.0
2018-Mar-25 06:56N 25°46' W 080°08'0 0.0
2018-Mar-25 06:26N 25°46' W 080°08'0 0.0
2018-Mar-25 05:59N 25°46' W 080°08'0 0.0
2018-Mar-25 05:29N 25°46' W 080°08'0 0.0
2018-Mar-25 04:59N 25°46' W 080°08'0 0.0
2018-Mar-25 04:26N 25°46' W 080°08'0 0.0
2018-Mar-25 03:53N 25°46' W 080°08'0 0.0
2018-Mar-25 03:29N 25°46' W 080°08'0 0.0
2018-Mar-25 02:59N 25°46' W 080°08'0 0.0
2018-Mar-25 02:29N 25°46' W 080°08'0 0.0
2018-Mar-25 01:53N 25°46' W 080°08'0 0.0
2018-Mar-25 01:20N 25°46' W 080°08'0 0.0
2018-Mar-25 00:56N 25°46' W 080°08'0 0.0
2018-Mar-25 00:29N 25°46' W 080°08'0 0.0
2018-Mar-24 23:53N 25°46' W 080°08'0 0.0
2018-Mar-24 23:26N 25°46' W 080°08'0 0.0
2018-Mar-24 22:59N 25°46' W 080°08'1 1.2
2018-Mar-24 22:30N 25°47' W 080°09'2 3.2
2018-Mar-24 22:00N 25°47' W 080°10'1 2.2
2018-Mar-24 21:30N 25°46' W 080°11'2 4.4
2018-Mar-24 21:00N 25°49' W 080°11'  

Dump ship's entire track history